createdAt,value
2023-10-26T00:01:44.064Z,98001.19
2023-10-26T00:04:12.294Z,97997.22
2023-10-26T00:06:40.885Z,97995.91
2023-10-26T00:09:11.067Z,97989.16
2023-10-26T00:11:39.506Z,97978.34
2023-10-26T00:14:08.419Z,97976.72
2023-10-26T00:16:37.253Z,97975.91
2023-10-26T00:19:06.570Z,97974.56
2023-10-26T00:21:35.185Z,97970.56
2023-10-26T00:24:03.799Z,97973.50
2023-10-26T00:26:33.576Z,97981.50
2023-10-26T00:29:02.628Z,97983.16
2023-10-26T00:31:31.219Z,97988.72
2023-10-26T00:34:00.537Z,97987.13
2023-10-26T00:36:28.918Z,97998.53
2023-10-26T00:38:57.414Z,97994.31
2023-10-26T00:41:25.889Z,98013.25
2023-10-26T00:43:57.020Z,98016.22
2023-10-26T00:46:26.361Z,98024.66
2023-10-26T00:48:54.943Z,98032.03
2023-10-26T00:51:23.571Z,98035.13
2023-10-26T00:56:44.242Z,98038.63
2023-10-26T00:59:17.829Z,98029.78
2023-10-26T01:01:48.445Z,98030.34
2023-10-26T01:04:19.799Z,98025.22
2023-10-26T01:06:50.422Z,98025.22
2023-10-26T01:09:21.501Z,98028.34
2023-10-26T01:11:50.202Z,98034.16
2023-10-26T01:14:34.033Z,98038.31
2023-10-26T01:17:04.549Z,98040.50
2023-10-26T01:19:39.742Z,98045.31
2023-10-26T01:22:09.687Z,98057.06
2023-10-26T01:24:39.126Z,98061.56
2023-10-26T01:27:07.744Z,98063.06
2023-10-26T01:29:36.037Z,98073.25
2023-10-26T01:32:04.017Z,98070.13
2023-10-26T01:34:33.523Z,98069.31
2023-10-26T01:37:01.427Z,98064.13
2023-10-26T01:39:30.890Z,98067.56
2023-10-26T01:41:59.012Z,98061.63
2023-10-26T01:44:27.004Z,98059.78
2023-10-26T01:46:55.124Z,98049.25
2023-10-26T01:49:23.862Z,98059.25
2023-10-26T01:51:52.004Z,98055.38
2023-10-26T01:54:20.129Z,98054.00
2023-10-26T01:56:49.868Z,98051.41
2023-10-26T01:59:18.442Z,98048.53
2023-10-26T02:01:46.901Z,98049.03
2023-10-26T02:04:14.864Z,98046.94
2023-10-26T02:06:43.057Z,98046.34
2023-10-26T02:09:11.208Z,98061.75
2023-10-26T02:11:40.276Z,98066.53
2023-10-26T02:14:10.523Z,98074.19
2023-10-26T02:16:38.644Z,98077.03
2023-10-26T02:19:07.016Z,98071.22
2023-10-26T02:21:36.624Z,98080.16
2023-10-26T02:24:05.233Z,98093.09
2023-10-26T02:26:33.340Z,98091.31
2023-10-26T02:29:01.440Z,98092.22
2023-10-26T02:31:30.639Z,98088.44
2023-10-26T02:33:58.678Z,98087.31
2023-10-26T02:36:26.915Z,98081.59
2023-10-26T02:38:55.058Z,98090.66
2023-10-26T02:41:23.004Z,98092.47
2023-10-26T02:43:51.399Z,98084.84
2023-10-26T02:46:19.736Z,98087.25
2023-10-26T02:48:49.087Z,98083.34
2023-10-26T02:51:17.355Z,98086.75
2023-10-26T02:53:46.427Z,98079.50
2023-10-26T02:56:14.818Z,98086.47
2023-10-26T02:58:42.973Z,98081.03
2023-10-26T03:01:10.951Z,98084.66
2023-10-26T03:03:39.113Z,98095.41
2023-10-26T03:06:08.918Z,98093.81
2023-10-26T03:08:36.946Z,98098.78
2023-10-26T03:11:05.269Z,98105.47
2023-10-26T03:13:33.472Z,98102.94
2023-10-26T03:16:01.693Z,98109.28
2023-10-26T03:18:29.704Z,98106.34
2023-10-26T03:20:57.846Z,98117.97
2023-10-26T03:23:27.282Z,98124.75
2023-10-26T03:25:55.273Z,98116.81
2023-10-26T03:28:23.489Z,98119.00
2023-10-26T03:30:54.521Z,98101.38
2023-10-26T03:33:22.977Z,98099.41
2023-10-26T03:35:52.632Z,98097.13
2023-10-26T03:38:20.714Z,98101.91
2023-10-26T03:40:52.998Z,98099.47
2023-10-26T03:43:21.223Z,98102.78
2023-10-26T03:45:49.269Z,98101.16
2023-10-26T03:48:17.963Z,98098.53
2023-10-26T03:50:46.142Z,98092.31
2023-10-26T03:53:14.943Z,98077.31
2023-10-26T03:55:42.965Z,98065.53
2023-10-26T03:58:15.479Z,98064.19
2023-10-26T04:00:43.761Z,98066.69
2023-10-26T04:03:12.161Z,98057.38
2023-10-26T04:05:40.697Z,98061.28
2023-10-26T04:08:08.675Z,98052.63
2023-10-26T04:10:36.771Z,98052.63
2023-10-26T04:13:05.045Z,98051.13
2023-10-26T04:15:34.794Z,98047.63
2023-10-26T04:18:05.738Z,98037.63
2023-10-26T04:20:34.485Z,98039.53
2023-10-26T04:23:02.462Z,98037.41
2023-10-26T04:25:46.512Z,98039.09
2023-10-26T04:28:21.316Z,98048.38
2023-10-26T04:30:51.488Z,98051.84
2023-10-26T04:33:20.217Z,98052.91
2023-10-26T04:35:49.335Z,98069.84
2023-10-26T04:38:17.502Z,98065.28
2023-10-26T04:40:46.241Z,98075.59
2023-10-26T04:43:15.146Z,98069.88
2023-10-26T04:45:43.643Z,98078.06
2023-10-26T04:48:13.440Z,98074.19
2023-10-26T04:50:43.920Z,98082.53
2023-10-26T04:53:12.181Z,98088.78
2023-10-26T04:55:40.270Z,98088.13
2023-10-26T04:58:09.208Z,98090.34
2023-10-26T05:00:37.342Z,98089.28
2023-10-26T05:03:05.505Z,98083.22
2023-10-26T05:05:35.943Z,98089.09
2023-10-26T05:08:06.412Z,98100.22
2023-10-26T05:10:34.943Z,98096.28
2023-10-26T05:13:04.522Z,98094.22
2023-10-26T05:15:33.138Z,98082.75
2023-10-26T05:18:01.269Z,98081.34
2023-10-26T05:20:31.485Z,98091.22
2023-10-26T05:23:01.206Z,98084.84
2023-10-26T05:25:29.426Z,98081.34
2023-10-26T05:27:57.468Z,98090.09
2023-10-26T05:30:25.977Z,98093.81
2023-10-26T05:32:54.227Z,98097.44
2023-10-26T05:35:22.623Z,98092.84
2023-10-26T05:37:50.624Z,98098.13
2023-10-26T05:40:20.592Z,98100.59
2023-10-26T05:42:48.711Z,98095.28
2023-10-26T05:45:17.156Z,98095.72
2023-10-26T05:47:47.660Z,98092.34
2023-10-26T05:50:15.951Z,98090.53
2023-10-26T05:52:44.036Z,98087.13
2023-10-26T05:55:12.319Z,98093.66
2023-10-26T05:57:41.594Z,98100.69
2023-10-26T06:00:11.045Z,98090.66
2023-10-26T06:02:42.065Z,98092.59
2023-10-26T06:05:10.258Z,98085.94
2023-10-26T06:07:38.437Z,98087.84
2023-10-26T06:10:07.726Z,98086.06
2023-10-26T06:12:35.796Z,98094.09
2023-10-26T06:15:05.592Z,98092.78
2023-10-26T06:17:34.612Z,98089.16
2023-10-26T06:20:02.987Z,98088.41
2023-10-26T06:22:31.639Z,98094.34
2023-10-26T06:24:59.724Z,98098.31
2023-10-26T06:27:27.848Z,98098.19
2023-10-26T06:29:55.974Z,98099.28
2023-10-26T06:32:25.536Z,98097.34
2023-10-26T06:34:53.655Z,98091.22
2023-10-26T06:37:21.654Z,98095.88
2023-10-26T06:39:49.701Z,98100.66
2023-10-26T06:42:17.891Z,98110.28
2023-10-26T06:44:47.467Z,98114.84
2023-10-26T06:47:16.526Z,98109.44
2023-10-26T06:49:45.914Z,98122.88
2023-10-26T06:52:14.546Z,98137.25
2023-10-26T06:54:43.182Z,98150.16
2023-10-26T06:57:11.944Z,98149.81
2023-10-26T06:59:40.072Z,98156.50
2023-10-26T07:02:10.420Z,98158.84
2023-10-26T07:04:41.211Z,98161.06
2023-10-26T07:07:10.686Z,98156.28
2023-10-26T07:09:39.304Z,98166.88
2023-10-26T07:12:08.507Z,98160.97
2023-10-26T07:14:35.620Z,98154.31
2023-10-26T07:17:04.101Z,98159.34
2023-10-26T07:19:32.581Z,98158.06
2023-10-26T07:22:00.854Z,98157.81
2023-10-26T07:24:30.663Z,98166.06
2023-10-26T07:26:59.286Z,98157.75
2023-10-26T07:29:27.429Z,98148.75
2023-10-26T07:31:57.204Z,98145.72
2023-10-26T07:34:26.238Z,98152.63
2023-10-26T07:36:54.682Z,98154.75
2023-10-26T07:39:45.879Z,98153.94
2023-10-26T07:42:14.076Z,98144.19
2023-10-26T07:44:42.782Z,98156.06
2023-10-26T07:47:11.760Z,98150.34
2023-10-26T07:49:40.039Z,98147.53
2023-10-26T07:52:08.511Z,98154.63
2023-10-26T07:54:37.271Z,98163.94
2023-10-26T07:57:06.298Z,98169.28
2023-10-26T07:59:36.442Z,98170.94
2023-10-26T08:02:05.641Z,98176.63
2023-10-26T08:04:34.654Z,98179.75
2023-10-26T08:07:02.883Z,98189.97
2023-10-26T08:09:33.485Z,98199.84
2023-10-26T08:12:02.567Z,98199.16
2023-10-26T08:16:09.572Z,98199.50
2023-10-26T08:17:22.293Z,98205.47
2023-10-26T08:19:53.536Z,98194.03
2023-10-26T08:22:22.433Z,98200.44
2023-10-26T08:24:51.207Z,98205.34
2023-10-26T08:27:19.814Z,98193.53
2023-10-26T08:29:48.881Z,98194.53
2023-10-26T08:32:18.507Z,98186.63
2023-10-26T08:34:48.661Z,98200.50
2023-10-26T08:37:18.779Z,98207.84
2023-10-26T08:39:47.236Z,98209.75
2023-10-26T08:42:17.090Z,98223.88
2023-10-26T08:44:46.256Z,98225.50
2023-10-26T08:47:18.643Z,98220.94
2023-10-26T08:50:08.213Z,98233.16
2023-10-26T08:52:43.773Z,98223.00
2023-10-26T08:55:12.369Z,98227.28
2023-10-26T08:57:48.515Z,98237.00
2023-10-26T09:00:17.820Z,98241.28
2023-10-26T09:02:46.962Z,98249.97
2023-10-26T09:05:17.527Z,98239.97
2023-10-26T09:07:46.202Z,98237.94
2023-10-26T09:10:14.968Z,98248.44
2023-10-26T09:13:01.358Z,98252.84
2023-10-26T09:15:30.335Z,98246.06
2023-10-26T09:18:01.560Z,98256.44
2023-10-26T09:20:32.988Z,98272.25
2023-10-26T09:23:01.649Z,98267.72
2023-10-26T09:25:30.678Z,98270.84
2023-10-26T09:28:04.299Z,98273.63
2023-10-26T09:30:34.114Z,98270.03
2023-10-26T09:33:06.500Z,98281.66
2023-10-26T09:35:36.783Z,98291.19
2023-10-26T09:38:05.548Z,98285.09
2023-10-26T09:40:33.724Z,98271.78
2023-10-26T09:43:02.445Z,98269.84
2023-10-26T09:45:31.141Z,98278.69
2023-10-26T09:48:04.560Z,98286.69
2023-10-26T09:50:39.382Z,98273.38
2023-10-26T09:55:39.804Z,98266.13
2023-10-26T09:58:09.928Z,98271.41
2023-10-26T10:00:38.566Z,98274.00
2023-10-26T10:03:14.414Z,98269.31
2023-10-26T10:05:45.188Z,98283.78
2023-10-26T10:08:15.403Z,98268.50
2023-10-26T10:11:18.509Z,98265.41
2023-10-26T10:13:47.792Z,98249.50
2023-10-26T10:16:52.069Z,98248.47
2023-10-26T10:19:24.929Z,98242.47
2023-10-26T10:21:54.231Z,98239.44
2023-10-26T10:24:55.892Z,98242.13
2023-10-26T10:27:24.543Z,98247.91
2023-10-26T10:29:53.244Z,98259.75
2023-10-26T10:32:53.379Z,98268.69
2023-10-26T10:35:40.055Z,98265.38
2023-10-26T10:38:22.562Z,98242.28
2023-10-26T10:41:20.193Z,98248.66
2023-10-26T10:43:49.332Z,98239.19
2023-10-26T10:46:23.152Z,98239.72
2023-10-26T10:49:12.812Z,98231.38
2023-10-26T10:51:42.796Z,98229.03
2023-10-26T10:56:49.414Z,98212.31
2023-10-26T10:59:22.163Z,98206.41
2023-10-26T11:01:51.756Z,98203.78
2023-10-26T11:04:23.319Z,98195.25
2023-10-26T11:06:51.629Z,98198.72
2023-10-26T11:09:24.016Z,98207.53
2023-10-26T11:11:54.328Z,98214.19
2023-10-26T11:14:23.780Z,98225.53
2023-10-26T11:16:53.508Z,98229.97
2023-10-26T11:19:21.598Z,98221.34
2023-10-26T11:21:56.793Z,98213.03
2023-10-26T11:24:32.575Z,98210.53
2023-10-26T11:27:10.435Z,98199.38
2023-10-26T11:29:39.239Z,98202.03
2023-10-26T11:32:19.964Z,98204.25
2023-10-26T11:35:04.573Z,98197.75
2023-10-26T11:37:33.534Z,98187.28
2023-10-26T11:40:02.151Z,98180.03
2023-10-26T11:42:48.492Z,98182.06
2023-10-26T11:45:17.687Z,98177.41
2023-10-26T11:47:50.166Z,98176.25
2023-10-26T11:50:23.314Z,98171.22
2023-10-26T11:52:52.426Z,98168.63
2023-10-26T11:55:21.746Z,98163.38
2023-10-26T11:57:51.891Z,98162.81
2023-10-26T12:00:21.829Z,98169.31
2023-10-26T12:02:50.211Z,98153.75
2023-10-26T12:05:19.705Z,98142.53
2023-10-26T12:07:49.767Z,98128.38
2023-10-26T12:10:21.710Z,98123.59
2023-10-26T12:12:52.503Z,98116.03
2023-10-26T12:15:24.088Z,98087.78
2023-10-26T12:17:52.828Z,98060.19
2023-10-26T12:20:23.000Z,98059.91
2023-10-26T12:22:53.508Z,98037.59
2023-10-26T12:25:22.262Z,98007.44
2023-10-26T12:28:12.191Z,97978.88
2023-10-26T12:30:44.546Z,98019.34
2023-10-26T12:33:15.628Z,98054.28
2023-10-26T12:35:49.914Z,98051.44
2023-10-26T12:38:20.965Z,98016.75
2023-10-26T12:40:50.320Z,97991.84
2023-10-26T12:43:20.402Z,97991.88
2023-10-26T12:45:48.918Z,97987.09
2023-10-26T12:48:17.392Z,98013.63
2023-10-26T12:50:48.135Z,98042.47
2023-10-26T12:53:17.080Z,98013.81
2023-10-26T12:55:46.173Z,98007.13
2023-10-26T12:58:16.304Z,98033.22
2023-10-26T13:00:46.855Z,98013.44
2023-10-26T13:03:15.629Z,98005.78
2023-10-26T13:05:44.155Z,98012.25
2023-10-26T13:08:12.847Z,98004.72
2023-10-26T13:10:41.678Z,97994.63
2023-10-26T13:13:10.397Z,97994.13
2023-10-26T13:15:40.648Z,97992.97
2023-10-26T13:18:10.491Z,97997.38
2023-10-26T13:20:39.042Z,97996.59
2023-10-26T13:23:07.403Z,97994.56
2023-10-26T13:25:37.975Z,97985.75
2023-10-26T13:28:06.916Z,97964.97
2023-10-26T13:30:35.381Z,97957.38
2023-10-26T13:33:04.174Z,97973.19
2023-10-26T13:35:34.648Z,97981.22
2023-10-26T13:38:03.090Z,97984.22
2023-10-26T13:40:31.847Z,97966.94
2023-10-26T13:43:02.015Z,97940.84
2023-10-26T13:45:30.730Z,97925.34
2023-10-26T13:48:01.024Z,97916.97
2023-10-26T13:50:30.682Z,97929.06
2023-10-26T13:53:01.333Z,97937.16
2023-10-26T13:55:29.776Z,97949.44
2023-10-26T13:58:01.617Z,97953.31
2023-10-26T14:00:30.469Z,97948.31
2023-10-26T14:02:59.306Z,97976.22
2023-10-26T14:05:30.668Z,97964.66
2023-10-26T14:08:01.081Z,97970.78
2023-10-26T14:10:29.532Z,97951.75
2023-10-26T14:12:58.314Z,97936.25
2023-10-26T14:15:28.399Z,97928.16
2023-10-26T14:17:56.770Z,97921.53
2023-10-26T14:20:26.383Z,97921.53
2023-10-26T14:22:54.932Z,97920.03
2023-10-26T14:25:25.104Z,97914.91
2023-10-26T14:27:54.008Z,97909.59
2023-10-26T14:30:22.845Z,97900.13
2023-10-26T14:32:51.589Z,97893.91
2023-10-26T14:35:20.343Z,97900.66
2023-10-26T14:37:51.613Z,97897.19
2023-10-26T14:40:20.875Z,97893.19
2023-10-26T14:42:50.473Z,97894.56
2023-10-26T14:45:19.115Z,97876.41
2023-10-26T14:47:47.856Z,97878.22
2023-10-26T14:50:16.892Z,97863.38
2023-10-26T14:52:45.253Z,97864.44
2023-10-26T14:55:17.409Z,97871.13
2023-10-26T14:57:46.179Z,97865.88
2023-10-26T15:00:18.044Z,97861.53
2023-10-26T15:02:46.846Z,97857.31
2023-10-26T15:05:16.020Z,97849.31
2023-10-26T15:07:44.482Z,97836.56
2023-10-26T15:10:24.205Z,97820.63
2023-10-26T15:12:55.631Z,97816.06
2023-10-26T15:15:26.242Z,97791.69
2023-10-26T15:17:55.121Z,97785.78
2023-10-26T15:20:23.643Z,97779.13
2023-10-26T15:22:52.394Z,97783.41
2023-10-26T15:25:21.290Z,97786.81
2023-10-26T15:27:49.437Z,97774.38
2023-10-26T15:30:17.257Z,97760.09
2023-10-26T15:32:46.902Z,97753.72
2023-10-26T15:35:15.107Z,97759.41
2023-10-26T15:37:42.967Z,97756.81
2023-10-26T15:40:14.069Z,97757.53
2023-10-26T15:42:42.199Z,97759.66
2023-10-26T15:45:12.500Z,97761.34
2023-10-26T15:47:40.788Z,97761.13
2023-10-26T15:50:11.322Z,97762.28
2023-10-26T15:52:39.545Z,97762.03
2023-10-26T15:55:08.117Z,97755.75
2023-10-26T15:57:37.920Z,97736.41
2023-10-26T16:00:10.838Z,97733.19
2023-10-26T16:02:39.196Z,97742.56
2023-10-26T16:05:07.361Z,97730.06
2023-10-26T16:07:37.993Z,97716.72
2023-10-26T16:10:06.959Z,97717.75
2023-10-26T16:12:35.614Z,97708.31
2023-10-26T16:15:03.954Z,97706.25
2023-10-26T16:17:33.122Z,97699.88
2023-10-26T16:20:00.931Z,97706.56
2023-10-26T16:22:28.822Z,97707.00
2023-10-26T16:24:58.225Z,97709.44
2023-10-26T16:27:26.838Z,97717.09
2023-10-26T16:29:54.899Z,97720.41
2023-10-26T16:32:27.643Z,97725.22
2023-10-26T16:34:56.433Z,97733.09
2023-10-26T16:37:24.412Z,97732.69
2023-10-26T16:39:52.641Z,97740.34
2023-10-26T16:42:21.883Z,97727.25
2023-10-26T16:44:49.862Z,97725.63
2023-10-26T16:47:17.865Z,97708.94
2023-10-26T16:49:45.860Z,97716.13
2023-10-26T16:52:13.996Z,97735.06
2023-10-26T16:54:42.335Z,97737.03
2023-10-26T16:57:11.143Z,97750.81
2023-10-26T16:59:40.472Z,97757.31
2023-10-26T17:02:09.641Z,97763.19
2023-10-26T17:04:38.277Z,97749.75
2023-10-26T17:07:06.150Z,97745.63
2023-10-26T17:09:34.153Z,97725.88
2023-10-26T17:12:06.179Z,97711.28
2023-10-26T17:14:34.975Z,97693.97
2023-10-26T17:17:04.672Z,97709.59
2023-10-26T17:19:32.650Z,97703.97
2023-10-26T17:22:00.530Z,97700.22
2023-10-26T17:24:28.548Z,97699.88
2023-10-26T17:26:56.415Z,97706.13
2023-10-26T17:29:24.794Z,97711.28
2023-10-26T17:31:53.264Z,97701.56
2023-10-26T17:34:23.388Z,97701.13
2023-10-26T17:36:51.197Z,97687.63
2023-10-26T17:39:19.443Z,97676.16
2023-10-26T17:41:47.718Z,97677.81
2023-10-26T17:44:17.602Z,97691.09
2023-10-26T17:46:45.873Z,97694.94
2023-10-26T17:49:16.316Z,97702.75
2023-10-26T17:51:45.641Z,97722.84
2023-10-26T17:54:16.299Z,97713.47
2023-10-26T17:56:44.113Z,97710.41
2023-10-26T17:59:12.269Z,97708.91
2023-10-26T18:01:40.614Z,97709.25
2023-10-26T18:04:08.819Z,97712.09
2023-10-26T18:06:36.835Z,97721.78
2023-10-26T18:09:06.600Z,97712.75
2023-10-26T18:11:34.478Z,97711.88
2023-10-26T18:14:02.354Z,97716.00
2023-10-26T18:16:29.960Z,97731.22
2023-10-26T18:19:00.627Z,97740.75
2023-10-26T18:21:28.773Z,97745.63
2023-10-26T18:23:57.090Z,97751.19
2023-10-26T18:26:26.981Z,97736.19
2023-10-26T18:28:55.049Z,97731.81
2023-10-26T18:31:23.599Z,97740.66
2023-10-26T18:33:55.462Z,97729.25
2023-10-26T18:36:24.931Z,97731.34
2023-10-26T18:38:52.693Z,97746.00
2023-10-26T18:41:23.227Z,97757.47
2023-10-26T18:43:55.417Z,97769.69
2023-10-26T18:46:23.622Z,97783.63
2023-10-26T18:48:51.626Z,97782.56
2023-10-26T18:51:20.021Z,97787.91
2023-10-26T18:53:49.702Z,97791.84
2023-10-26T18:56:20.301Z,97790.97
2023-10-26T18:58:48.063Z,97800.91
2023-10-26T19:01:17.791Z,97807.59
2023-10-26T19:03:57.934Z,97809.75
2023-10-26T19:06:30.777Z,97808.78
2023-10-26T19:09:00.845Z,97810.75
2023-10-26T19:11:29.286Z,97806.06
2023-10-26T19:13:57.734Z,97801.91
2023-10-26T19:16:27.157Z,97809.97
2023-10-26T19:18:55.817Z,97803.56
2023-10-26T19:21:24.273Z,97796.09
2023-10-26T19:23:52.132Z,97785.34
2023-10-26T19:26:20.161Z,97790.44
2023-10-26T19:28:48.120Z,97791.94
2023-10-26T19:31:16.170Z,97788.28
2023-10-26T19:33:47.958Z,97779.56
2023-10-26T19:36:16.515Z,97783.16
2023-10-26T19:38:45.441Z,97783.25
2023-10-26T19:41:15.840Z,97777.25
2023-10-26T19:43:43.799Z,97763.59
2023-10-26T19:46:11.894Z,97764.25
2023-10-26T19:48:40.255Z,97770.50
2023-10-26T19:51:14.710Z,97777.59
2023-10-26T19:53:45.318Z,97782.31
2023-10-26T19:56:13.588Z,97782.47
2023-10-26T19:58:41.513Z,97793.94
2023-10-26T20:01:13.953Z,97806.09
2023-10-26T20:03:42.178Z,97815.16
2023-10-26T20:06:11.576Z,97822.41
2023-10-26T20:08:40.352Z,97814.34
2023-10-26T20:11:10.826Z,97809.22
2023-10-26T20:13:39.183Z,97801.75
2023-10-26T20:16:07.517Z,97795.28
2023-10-26T20:18:38.735Z,97789.41
2023-10-26T20:21:06.824Z,97797.03
2023-10-26T20:23:36.062Z,97794.72
2023-10-26T20:26:04.375Z,97794.28
2023-10-26T20:28:32.317Z,97801.91
2023-10-26T20:31:02.851Z,97802.00
2023-10-26T20:33:30.562Z,97795.88
2023-10-26T20:35:58.983Z,97783.66
2023-10-26T20:38:27.437Z,97781.63
2023-10-26T20:40:59.132Z,97780.56
2023-10-26T20:43:27.071Z,97774.44
2023-10-26T20:45:58.802Z,97770.31
2023-10-26T20:48:27.022Z,97766.41
2023-10-26T20:50:56.635Z,97773.88
2023-10-26T20:53:28.319Z,97773.25
2023-10-26T20:56:00.227Z,97770.31
2023-10-26T20:58:29.026Z,97765.50
2023-10-26T21:00:58.895Z,97762.06
2023-10-26T21:03:27.050Z,97762.13
2023-10-26T21:05:55.678Z,97759.28
2023-10-26T21:08:23.683Z,97760.28
2023-10-26T21:10:51.847Z,97748.56
2023-10-26T21:13:21.881Z,97749.00
2023-10-26T21:15:49.933Z,97742.56
2023-10-26T21:18:18.030Z,97734.28
2023-10-26T21:20:45.952Z,97724.69
2023-10-26T21:23:13.966Z,97721.94
2023-10-26T21:25:42.993Z,97720.31
2023-10-26T21:28:11.567Z,97708.09
2023-10-26T21:30:41.209Z,97714.09
2023-10-26T21:33:09.330Z,97712.44
2023-10-26T21:35:46.781Z,97720.72
2023-10-26T21:38:15.123Z,97733.06
2023-10-26T21:40:42.928Z,97723.28
2023-10-26T21:43:10.709Z,97727.81
2023-10-26T21:45:41.017Z,97734.31
2023-10-26T21:48:11.260Z,97733.56
2023-10-26T21:50:40.099Z,97730.78
2023-10-26T21:53:08.614Z,97729.00
2023-10-26T21:55:38.576Z,97720.53
2023-10-26T21:58:06.931Z,97722.81
2023-10-26T22:00:35.209Z,97723.28
2023-10-26T22:03:06.233Z,97720.38
2023-10-26T22:05:34.325Z,97720.53
2023-10-26T22:08:02.338Z,97716.44
2023-10-26T22:10:30.221Z,97717.78
2023-10-26T22:12:58.063Z,97718.94
2023-10-26T22:15:26.932Z,97719.28
2023-10-26T22:17:55.074Z,97710.19
2023-10-26T22:20:24.779Z,97709.22
2023-10-26T22:22:52.671Z,97704.50
2023-10-26T22:25:21.612Z,97693.94
2023-10-26T22:27:49.711Z,97689.53
2023-10-26T22:30:18.235Z,97679.44
2023-10-26T22:32:46.592Z,97689.19
2023-10-26T22:35:14.670Z,97686.59
2023-10-26T22:37:44.385Z,97690.81
2023-10-26T22:40:13.730Z,97684.69
2023-10-26T22:42:41.597Z,97681.91
2023-10-26T22:45:12.550Z,97685.81
2023-10-26T22:47:40.639Z,97682.59
2023-10-26T22:50:10.015Z,97683.41
2023-10-26T22:52:38.204Z,97684.69
2023-10-26T22:55:09.096Z,97688.91
2023-10-26T22:57:37.217Z,97688.41
2023-10-26T23:00:07.611Z,97688.41
2023-10-26T23:02:36.038Z,97681.63
2023-10-26T23:05:05.204Z,97680.63
2023-10-26T23:07:34.589Z,97674.44
2023-10-26T23:10:03.127Z,97673.47
2023-10-26T23:12:33.307Z,97686.00
2023-10-26T23:15:01.408Z,97681.28
2023-10-26T23:17:29.727Z,97688.91
2023-10-26T23:19:57.847Z,97683.34
2023-10-26T23:22:25.935Z,97684.16
2023-10-26T23:24:54.702Z,97681.09
2023-10-26T23:27:23.217Z,97693.50
2023-10-26T23:29:52.574Z,97686.53
2023-10-26T23:32:20.719Z,97686.53
2023-10-26T23:34:48.856Z,97674.34
2023-10-26T23:37:17.557Z,97678.25
2023-10-26T23:39:45.897Z,97676.63
2023-10-26T23:42:14.029Z,97669.69
2023-10-26T23:44:42.196Z,97664.00
2023-10-26T23:47:13.213Z,97664.31
2023-10-26T23:49:41.213Z,97667.22
2023-10-26T23:52:09.292Z,97678.25
2023-10-26T23:54:37.280Z,97687.03
2023-10-26T23:57:05.768Z,97695.47
2023-10-26T23:59:33.979Z,97695.31
